<?xml version="1.0" encoding="UTF-8" standalone="no" ?><gpx xmlns="http://www.topografix.com/GPX/1/1" xmlns:gpxx="http://www.garmin.com/xmlschemas/GpxExtensions/v3" xmlns:wptx1="http://www.garmin.com/xmlschemas/WaypointExtension/v1" xmlns:gpxtpx="http://www.garmin.com/xmlschemas/TrackPointExtension/v1" creator="GuideVTT.com" version="1.1" xmlns:xsi="http://www.w3.org/2001/XMLSchema-instance" xsi:schemaLocation="http://www.topografix.com/GPX/1/1 http://www.topografix.com/GPX/1/1/gpx.xsd http://www.garmin.com/xmlschemas/GpxExtensions/v3 http://www8.garmin.com/xmlschemas/GpxExtensionsv3.xsd http://www.garmin.com/xmlschemas/WaypointExtension/v1 http://www8.garmin.com/xmlschemas/WaypointExtensionv1.xsd http://www.garmin.com/xmlschemas/TrackPointExtension/v1 http://www.garmin.com/xmlschemas/TrackPointExtensionv1.xsd">
<metadata><link href="http://www.garmin.com"><text>Garmin International</text></link><time>2013-06-22T15:13:50Z</time></metadata>
<trk><name>rp2016_27.gpx</name><extensions><gpxx:TrackExtension><gpxx:DisplayColor>Cyan</gpxx:DisplayColor></gpxx:TrackExtension></extensions><trkseg>
<trkpt lat="46.20666" lon="7.43962"><ele>1499.4</ele><time>2016-07-18T16:42:47Z</time></trkpt>
<trkpt lat="46.20669" lon="7.43967"><ele>1498.8</ele><time>2016-07-18T16:42:49Z</time></trkpt>
<trkpt lat="46.20671" lon="7.43971"><ele>1495.2</ele><time>2016-07-18T16:42:55Z</time></trkpt>
<trkpt lat="46.20672" lon="7.43975"><ele>1495</ele><time>2016-07-18T16:42:58Z</time></trkpt>
<trkpt lat="46.20673" lon="7.4398"><ele>1493.8</ele><time>2016-07-18T16:43:04Z</time></trkpt>
<trkpt lat="46.20693" lon="7.43982"><ele>1495.4</ele><time>2016-07-18T16:43:11Z</time></trkpt>
<trkpt lat="46.20712" lon="7.43965"><ele>1493.4</ele><time>2016-07-18T16:43:17Z</time></trkpt>
<trkpt lat="46.2073" lon="7.4395"><ele>1497.2</ele><time>2016-07-18T16:43:23Z</time></trkpt>
<trkpt lat="46.20747" lon="7.43937"><ele>1496.8</ele><time>2016-07-18T16:43:28Z</time></trkpt>
<trkpt lat="46.20763" lon="7.43925"><ele>1495.6</ele><time>2016-07-18T16:43:33Z</time></trkpt>
<trkpt lat="46.20768" lon="7.43922"><ele>1495.8</ele><time>2016-07-18T16:43:35Z</time></trkpt>
<trkpt lat="46.20772" lon="7.43923"><ele>1495.8</ele><time>2016-07-18T16:43:36Z</time></trkpt>
<trkpt lat="46.20789" lon="7.4393"><ele>1496.6</ele><time>2016-07-18T16:43:42Z</time></trkpt>
<trkpt lat="46.20803" lon="7.43934"><ele>1496.2</ele><time>2016-07-18T16:43:47Z</time></trkpt>
<trkpt lat="46.20822" lon="7.4394"><ele>1493.8</ele><time>2016-07-18T16:43:53Z</time></trkpt>
<trkpt lat="46.2084" lon="7.43941"><ele>1492.2</ele><time>2016-07-18T16:43:58Z</time></trkpt>
<trkpt lat="46.20859" lon="7.43941"><ele>1491.6</ele><time>2016-07-18T16:44:03Z</time></trkpt>
<trkpt lat="46.20876" lon="7.43942"><ele>1490.2</ele><time>2016-07-18T16:44:07Z</time></trkpt>
<trkpt lat="46.20898" lon="7.43936"><ele>1487</ele><time>2016-07-18T16:44:12Z</time></trkpt>
<trkpt lat="46.2092" lon="7.43929"><ele>1482.2</ele><time>2016-07-18T16:44:16Z</time></trkpt>
<trkpt lat="46.20939" lon="7.4393"><ele>1478.4</ele><time>2016-07-18T16:44:19Z</time></trkpt>
<trkpt lat="46.2096" lon="7.43929"><ele>1474.6</ele><time>2016-07-18T16:44:22Z</time></trkpt>
<trkpt lat="46.20982" lon="7.43914"><ele>1471</ele><time>2016-07-18T16:44:25Z</time></trkpt>
<trkpt lat="46.20989" lon="7.43907"><ele>1469.6</ele><time>2016-07-18T16:44:26Z</time></trkpt>
<trkpt lat="46.21005" lon="7.43892"><ele>1466.8</ele><time>2016-07-18T16:44:28Z</time></trkpt>
<trkpt lat="46.21022" lon="7.43875"><ele>1464</ele><time>2016-07-18T16:44:30Z</time></trkpt>
<trkpt lat="46.21039" lon="7.43856"><ele>1461.2</ele><time>2016-07-18T16:44:32Z</time></trkpt>
<trkpt lat="46.21056" lon="7.43838"><ele>1459</ele><time>2016-07-18T16:44:34Z</time></trkpt>
<trkpt lat="46.21072" lon="7.43822"><ele>1456.4</ele><time>2016-07-18T16:44:36Z</time></trkpt>
<trkpt lat="46.21079" lon="7.43816"><ele>1455.6</ele><time>2016-07-18T16:44:37Z</time></trkpt>
<trkpt lat="46.21095" lon="7.43801"><ele>1453</ele><time>2016-07-18T16:44:40Z</time></trkpt>
<trkpt lat="46.2111" lon="7.43778"><ele>1451.8</ele><time>2016-07-18T16:44:44Z</time></trkpt>
<trkpt lat="46.21127" lon="7.43768"><ele>1451.8</ele><time>2016-07-18T16:44:49Z</time></trkpt>
<trkpt lat="46.21137" lon="7.43762"><ele>1454</ele><time>2016-07-18T16:44:53Z</time></trkpt>
<trkpt lat="46.2115" lon="7.43753"><ele>1456.4</ele><time>2016-07-18T16:44:59Z</time></trkpt>
<trkpt lat="46.21169" lon="7.43744"><ele>1459</ele><time>2016-07-18T16:45:08Z</time></trkpt>
<trkpt lat="46.21171" lon="7.43743"><ele>1459.2</ele><time>2016-07-18T16:45:09Z</time></trkpt>
<trkpt lat="46.21181" lon="7.4374"><ele>1460</ele><time>2016-07-18T16:45:14Z</time></trkpt>
<trkpt lat="46.21184" lon="7.43738"><ele>1460.6</ele><time>2016-07-18T16:45:16Z</time></trkpt>
<trkpt lat="46.21206" lon="7.43721"><ele>1463.2</ele><time>2016-07-18T16:45:29Z</time></trkpt>
<trkpt lat="46.21211" lon="7.43716"><ele>1463.8</ele><time>2016-07-18T16:45:32Z</time></trkpt>
<trkpt lat="46.21226" lon="7.43701"><ele>1465.2</ele><time>2016-07-18T16:45:42Z</time></trkpt>
<trkpt lat="46.21229" lon="7.43698"><ele>1465.6</ele><time>2016-07-18T16:45:44Z</time></trkpt>
<trkpt lat="46.2123" lon="7.43697"><ele>1465.8</ele><time>2016-07-18T16:45:45Z</time></trkpt>
<trkpt lat="46.21232" lon="7.43695"><ele>1466</ele><time>2016-07-18T16:45:46Z</time></trkpt>
<trkpt lat="46.21241" lon="7.43686"><ele>1467.2</ele><time>2016-07-18T16:45:52Z</time></trkpt>
<trkpt lat="46.21248" lon="7.43679"><ele>1468.4</ele><time>2016-07-18T16:45:57Z</time></trkpt>
<trkpt lat="46.21257" lon="7.4367"><ele>1469.4</ele><time>2016-07-18T16:46:03Z</time></trkpt>
<trkpt lat="46.2126" lon="7.43667"><ele>1469.8</ele><time>2016-07-18T16:46:05Z</time></trkpt>
<trkpt lat="46.21267" lon="7.4366"><ele>1470.6</ele><time>2016-07-18T16:46:10Z</time></trkpt>
<trkpt lat="46.21273" lon="7.43654"><ele>1471.4</ele><time>2016-07-18T16:46:14Z</time></trkpt>
<trkpt lat="46.21286" lon="7.43641"><ele>1472.8</ele><time>2016-07-18T16:46:23Z</time></trkpt>
<trkpt lat="46.21301" lon="7.43627"><ele>1474</ele><time>2016-07-18T16:46:33Z</time></trkpt>
<trkpt lat="46.21317" lon="7.43614"><ele>1476.2</ele><time>2016-07-18T16:46:43Z</time></trkpt>
<trkpt lat="46.21327" lon="7.43604"><ele>1477.2</ele><time>2016-07-18T16:46:50Z</time></trkpt>
<trkpt lat="46.21338" lon="7.43594"><ele>1478.4</ele><time>2016-07-18T16:46:57Z</time></trkpt>
<trkpt lat="46.21342" lon="7.43592"><ele>1478.6</ele><time>2016-07-18T16:46:59Z</time></trkpt>
<trkpt lat="46.21343" lon="7.43591"><ele>1478.8</ele><time>2016-07-18T16:47:00Z</time></trkpt>
<trkpt lat="46.21345" lon="7.43589"><ele>1479</ele><time>2016-07-18T16:47:01Z</time></trkpt>
<trkpt lat="46.21351" lon="7.43584"><ele>1479.4</ele><time>2016-07-18T16:47:05Z</time></trkpt>
<trkpt lat="46.21356" lon="7.43581"><ele>1479.8</ele><time>2016-07-18T16:47:08Z</time></trkpt>
<trkpt lat="46.21366" lon="7.43573"><ele>1481.2</ele><time>2016-07-18T16:47:14Z</time></trkpt>
<trkpt lat="46.21371" lon="7.43569"><ele>1481.8</ele><time>2016-07-18T16:47:17Z</time></trkpt>
<trkpt lat="46.21384" lon="7.43559"><ele>1482.4</ele><time>2016-07-18T16:47:25Z</time></trkpt>
<trkpt lat="46.21401" lon="7.43544"><ele>1483.8</ele><time>2016-07-18T16:47:36Z</time></trkpt>
<trkpt lat="46.21415" lon="7.43529"><ele>1485.4</ele><time>2016-07-18T16:47:46Z</time></trkpt>
<trkpt lat="46.21431" lon="7.43513"><ele>1486.8</ele><time>2016-07-18T16:47:57Z</time></trkpt>
<trkpt lat="46.21448" lon="7.43502"><ele>1488.2</ele><time>2016-07-18T16:48:07Z</time></trkpt>
<trkpt lat="46.21467" lon="7.43495"><ele>1490.4</ele><time>2016-07-18T16:48:18Z</time></trkpt>
<trkpt lat="46.21474" lon="7.43493"><ele>1491.2</ele><time>2016-07-18T16:48:22Z</time></trkpt>
<trkpt lat="46.21477" lon="7.43493"><ele>1491.4</ele><time>2016-07-18T16:48:24Z</time></trkpt>
<trkpt lat="46.21495" lon="7.43496"><ele>1492.8</ele><time>2016-07-18T16:48:34Z</time></trkpt>
<trkpt lat="46.21511" lon="7.43513"><ele>1494</ele><time>2016-07-18T16:48:44Z</time></trkpt>
<trkpt lat="46.21524" lon="7.43535"><ele>1495</ele><time>2016-07-18T16:48:54Z</time></trkpt>
<trkpt lat="46.21538" lon="7.43553"><ele>1497.2</ele><time>2016-07-18T16:49:05Z</time></trkpt>
<trkpt lat="46.21556" lon="7.43561"><ele>1500.2</ele><time>2016-07-18T16:49:17Z</time></trkpt>
<trkpt lat="46.21567" lon="7.43564"><ele>1501.6</ele><time>2016-07-18T16:49:23Z</time></trkpt>
<trkpt lat="46.21586" lon="7.43566"><ele>1503.4</ele><time>2016-07-18T16:49:33Z</time></trkpt>
<trkpt lat="46.21605" lon="7.43567"><ele>1505</ele><time>2016-07-18T16:49:42Z</time></trkpt>
<trkpt lat="46.21624" lon="7.43568"><ele>1507.2</ele><time>2016-07-18T16:49:52Z</time></trkpt>
<trkpt lat="46.21643" lon="7.43571"><ele>1507.8</ele><time>2016-07-18T16:50:02Z</time></trkpt>
<trkpt lat="46.21661" lon="7.43577"><ele>1507.2</ele><time>2016-07-18T16:50:11Z</time></trkpt>
<trkpt lat="46.21679" lon="7.43583"><ele>1507.4</ele><time>2016-07-18T16:50:21Z</time></trkpt>
<trkpt lat="46.21699" lon="7.43588"><ele>1507.8</ele><time>2016-07-18T16:50:31Z</time></trkpt>
<trkpt lat="46.21721" lon="7.4359"><ele>1511</ele><time>2016-07-18T16:50:42Z</time></trkpt>
<trkpt lat="46.21733" lon="7.43587"><ele>1513.8</ele><time>2016-07-18T16:50:48Z</time></trkpt>
<trkpt lat="46.21752" lon="7.43582"><ele>1516.2</ele><time>2016-07-18T16:50:58Z</time></trkpt>
<trkpt lat="46.2177" lon="7.43572"><ele>1519</ele><time>2016-07-18T16:51:08Z</time></trkpt>
<trkpt lat="46.21783" lon="7.43565"><ele>1520.6</ele><time>2016-07-18T16:51:15Z</time></trkpt>
<trkpt lat="46.21788" lon="7.43562"><ele>1520.4</ele><time>2016-07-18T16:51:18Z</time></trkpt>
<trkpt lat="46.21806" lon="7.43551"><ele>1522.2</ele><time>2016-07-18T16:51:28Z</time></trkpt>
<trkpt lat="46.21823" lon="7.43538"><ele>1524.8</ele><time>2016-07-18T16:51:38Z</time></trkpt>
<trkpt lat="46.21841" lon="7.43527"><ele>1526.6</ele><time>2016-07-18T16:51:48Z</time></trkpt>
<trkpt lat="46.21856" lon="7.43521"><ele>1528.4</ele><time>2016-07-18T16:51:56Z</time></trkpt>
<trkpt lat="46.21876" lon="7.43516"><ele>1531.8</ele><time>2016-07-18T16:52:07Z</time></trkpt>
<trkpt lat="46.21894" lon="7.43523"><ele>1537</ele><time>2016-07-18T16:52:18Z</time></trkpt>
<trkpt lat="46.21912" lon="7.43529"><ele>1542</ele><time>2016-07-18T16:52:29Z</time></trkpt>
<trkpt lat="46.21931" lon="7.43532"><ele>1545.8</ele><time>2016-07-18T16:52:39Z</time></trkpt>
<trkpt lat="46.21949" lon="7.43531"><ele>1548.6</ele><time>2016-07-18T16:52:49Z</time></trkpt>
<trkpt lat="46.21967" lon="7.43526"><ele>1550.6</ele><time>2016-07-18T16:52:58Z</time></trkpt>
<trkpt lat="46.21987" lon="7.43522"><ele>1551.6</ele><time>2016-07-18T16:53:08Z</time></trkpt>
<trkpt lat="46.22005" lon="7.43516"><ele>1556.6</ele><time>2016-07-18T16:53:18Z</time></trkpt>
<trkpt lat="46.22029" lon="7.43526"><ele>1559.6</ele><time>2016-07-18T16:53:32Z</time></trkpt>
<trkpt lat="46.22039" lon="7.4355"><ele>1556.6</ele><time>2016-07-18T16:53:40Z</time></trkpt>
<trkpt lat="46.22041" lon="7.43559"><ele>1555.4</ele><time>2016-07-18T16:53:43Z</time></trkpt>
<trkpt lat="46.2204" lon="7.43584"><ele>1555.6</ele><time>2016-07-18T16:53:53Z</time></trkpt>
<trkpt lat="46.22022" lon="7.43592"><ele>1556.4</ele><time>2016-07-18T16:54:03Z</time></trkpt>
<trkpt lat="46.22003" lon="7.43605"><ele>1556.6</ele><time>2016-07-18T16:54:13Z</time></trkpt>
<trkpt lat="46.22001" lon="7.43615"><ele>1556.4</ele><time>2016-07-18T16:54:17Z</time></trkpt>
<trkpt lat="46.22003" lon="7.43634"><ele>1556.2</ele><time>2016-07-18T16:54:25Z</time></trkpt>
<trkpt lat="46.22015" lon="7.43643"><ele>1556.4</ele><time>2016-07-18T16:54:35Z</time></trkpt>
<trkpt lat="46.22032" lon="7.43653"><ele>1559.4</ele><time>2016-07-18T16:54:51Z</time></trkpt>
<trkpt lat="46.22041" lon="7.43658"><ele>1561.2</ele><time>2016-07-18T16:54:59Z</time></trkpt>
<trkpt lat="46.22043" lon="7.43661"><ele>1561.6</ele><time>2016-07-18T16:55:01Z</time></trkpt>
<trkpt lat="46.2204" lon="7.43676"><ele>1563.2</ele><time>2016-07-18T16:55:09Z</time></trkpt>
<trkpt lat="46.22015" lon="7.43687"><ele>1568.6</ele><time>2016-07-18T16:55:27Z</time></trkpt>
<trkpt lat="46.22003" lon="7.43688"><ele>1571.6</ele><time>2016-07-18T16:55:36Z</time></trkpt>
<trkpt lat="46.21997" lon="7.43688"><ele>1572.8</ele><time>2016-07-18T16:55:41Z</time></trkpt>
<trkpt lat="46.21989" lon="7.43689"><ele>1574.6</ele><time>2016-07-18T16:55:49Z</time></trkpt>
<trkpt lat="46.21982" lon="7.4369"><ele>1576</ele><time>2016-07-18T16:55:55Z</time></trkpt>
<trkpt lat="46.21968" lon="7.43692"><ele>1578.4</ele><time>2016-07-18T16:56:07Z</time></trkpt>
<trkpt lat="46.2195" lon="7.43695"><ele>1581.4</ele><time>2016-07-18T16:56:25Z</time></trkpt>
<trkpt lat="46.21927" lon="7.43696"><ele>1583.4</ele><time>2016-07-18T16:56:44Z</time></trkpt>
<trkpt lat="46.21913" lon="7.43698"><ele>1585.8</ele><time>2016-07-18T16:56:57Z</time></trkpt>
<trkpt lat="46.21895" lon="7.43703"><ele>1589.8</ele><time>2016-07-18T16:57:14Z</time></trkpt>
<trkpt lat="46.21879" lon="7.43716"><ele>1592.6</ele><time>2016-07-18T16:57:31Z</time></trkpt>
<trkpt lat="46.21867" lon="7.43739"><ele>1595.4</ele><time>2016-07-18T16:57:49Z</time></trkpt>
<trkpt lat="46.21864" lon="7.43745"><ele>1596.2</ele><time>2016-07-18T16:57:54Z</time></trkpt>
<trkpt lat="46.21857" lon="7.43762"><ele>1598</ele><time>2016-07-18T16:58:04Z</time></trkpt>
<trkpt lat="46.21854" lon="7.43767"><ele>1598.8</ele><time>2016-07-18T16:58:08Z</time></trkpt>
<trkpt lat="46.21853" lon="7.43772"><ele>1599.8</ele><time>2016-07-18T16:58:13Z</time></trkpt>
<trkpt lat="46.21853" lon="7.43776"><ele>1600.4</ele><time>2016-07-18T16:58:16Z</time></trkpt>
<trkpt lat="46.21852" lon="7.43777"><ele>1600.6</ele><time>2016-07-18T16:58:17Z</time></trkpt>
<trkpt lat="46.21843" lon="7.43795"><ele>1604.2</ele><time>2016-07-18T16:58:35Z</time></trkpt>
<trkpt lat="46.21832" lon="7.43825"><ele>1606.2</ele><time>2016-07-18T16:58:59Z</time></trkpt>
<trkpt lat="46.21819" lon="7.43845"><ele>1607.6</ele><time>2016-07-18T16:59:15Z</time></trkpt>
<trkpt lat="46.21808" lon="7.43866"><ele>1609.6</ele><time>2016-07-18T16:59:32Z</time></trkpt>
<trkpt lat="46.21795" lon="7.43887"><ele>1611.8</ele><time>2016-07-18T16:59:48Z</time></trkpt>
<trkpt lat="46.21781" lon="7.43904"><ele>1614.2</ele><time>2016-07-18T17:00:06Z</time></trkpt>
<trkpt lat="46.21768" lon="7.43914"><ele>1616.8</ele><time>2016-07-18T17:00:22Z</time></trkpt>
<trkpt lat="46.21756" lon="7.43926"><ele>1619.2</ele><time>2016-07-18T17:00:37Z</time></trkpt>
<trkpt lat="46.21743" lon="7.43933"><ele>1623.4</ele><time>2016-07-18T17:01:09Z</time></trkpt>
<trkpt lat="46.21742" lon="7.43933"><ele>1623.4</ele><time>2016-07-18T17:01:10Z</time></trkpt>
<trkpt lat="46.21741" lon="7.43932"><ele>1623.6</ele><time>2016-07-18T17:01:12Z</time></trkpt>
<trkpt lat="46.21742" lon="7.4393"><ele>1624</ele><time>2016-07-18T17:01:15Z</time></trkpt>
<trkpt lat="46.21743" lon="7.4393"><ele>1624.4</ele><time>2016-07-18T17:01:17Z</time></trkpt>
<trkpt lat="46.21743" lon="7.4393"><ele>1624.6</ele><time>2016-07-18T17:01:19Z</time></trkpt>
<trkpt lat="46.21744" lon="7.4393"><ele>1624.8</ele><time>2016-07-18T17:01:22Z</time></trkpt>
<trkpt lat="46.21744" lon="7.43931"><ele>1625.4</ele><time>2016-07-18T17:01:26Z</time></trkpt>
<trkpt lat="46.21744" lon="7.4393"><ele>1626</ele><time>2016-07-18T17:01:33Z</time></trkpt>
<trkpt lat="46.21744" lon="7.43929"><ele>1626.2</ele><time>2016-07-18T17:01:35Z</time></trkpt>
<trkpt lat="46.21744" lon="7.43929"><ele>1626.4</ele><time>2016-07-18T17:01:37Z</time></trkpt>
<trkpt lat="46.21744" lon="7.43929"><ele>1626.4</ele><time>2016-07-18T17:01:38Z</time></trkpt>
<trkpt lat="46.21744" lon="7.4393"><ele>1626.8</ele><time>2016-07-18T17:01:45Z</time></trkpt>
<trkpt lat="46.21744" lon="7.4393"><ele>1626.8</ele><time>2016-07-18T17:01:47Z</time></trkpt>
<trkpt lat="46.21744" lon="7.43931"><ele>1627</ele><time>2016-07-18T17:01:49Z</time></trkpt>
<trkpt lat="46.21744" lon="7.43931"><ele>1627</ele><time>2016-07-18T17:01:53Z</time></trkpt>
<trkpt lat="46.21743" lon="7.43932"><ele>1627.2</ele><time>2016-07-18T17:01:56Z</time></trkpt>
<trkpt lat="46.21743" lon="7.43932"><ele>1629</ele><time>2016-07-18T17:02:29Z</time></trkpt>
<trkpt lat="46.21743" lon="7.43932"><ele>1629.2</ele><time>2016-07-18T17:02:30Z</time></trkpt>
<trkpt lat="46.21744" lon="7.43934"><ele>1629.8</ele><time>2016-07-18T17:02:39Z</time></trkpt>
<trkpt lat="46.21744" lon="7.43934"><ele>1630</ele><time>2016-07-18T17:02:40Z</time></trkpt>
<trkpt lat="46.21742" lon="7.4393"><ele>1630</ele><time>2016-07-18T17:02:56Z</time></trkpt>
<trkpt lat="46.21742" lon="7.43931"><ele>1630.4</ele><time>2016-07-18T17:03:09Z</time></trkpt>
<trkpt lat="46.2174" lon="7.43936"><ele>1631</ele><time>2016-07-18T17:03:23Z</time></trkpt>
<trkpt lat="46.2174" lon="7.43936"><ele>1631</ele><time>2016-07-18T17:03:25Z</time></trkpt>
<trkpt lat="46.21729" lon="7.43949"><ele>1633.2</ele><time>2016-07-18T17:03:59Z</time></trkpt>
<trkpt lat="46.21722" lon="7.43957"><ele>1633.6</ele><time>2016-07-18T17:04:07Z</time></trkpt>
<trkpt lat="46.21716" lon="7.43966"><ele>1634.4</ele><time>2016-07-18T17:04:17Z</time></trkpt>
<trkpt lat="46.21711" lon="7.43974"><ele>1634.8</ele><time>2016-07-18T17:04:24Z</time></trkpt>
<trkpt lat="46.21699" lon="7.43991"><ele>1637</ele><time>2016-07-18T17:04:42Z</time></trkpt>
<trkpt lat="46.21683" lon="7.44007"><ele>1640</ele><time>2016-07-18T17:05:05Z</time></trkpt>
<trkpt lat="46.21668" lon="7.4402"><ele>1642.6</ele><time>2016-07-18T17:05:22Z</time></trkpt>
<trkpt lat="46.21651" lon="7.44041"><ele>1646.8</ele><time>2016-07-18T17:05:45Z</time></trkpt>
<trkpt lat="46.21649" lon="7.44042"><ele>1647</ele><time>2016-07-18T17:05:47Z</time></trkpt>
<trkpt lat="46.2164" lon="7.44051"><ele>1648.4</ele><time>2016-07-18T17:05:56Z</time></trkpt>
<trkpt lat="46.21627" lon="7.44066"><ele>1651.6</ele><time>2016-07-18T17:06:12Z</time></trkpt>
<trkpt lat="46.21623" lon="7.44069"><ele>1652.6</ele><time>2016-07-18T17:06:17Z</time></trkpt>
<trkpt lat="46.21621" lon="7.44073"><ele>1653.4</ele><time>2016-07-18T17:06:20Z</time></trkpt>
<trkpt lat="46.21618" lon="7.44077"><ele>1654.4</ele><time>2016-07-18T17:06:24Z</time></trkpt>
<trkpt lat="46.21617" lon="7.44079"><ele>1655</ele><time>2016-07-18T17:06:26Z</time></trkpt>
<trkpt lat="46.21615" lon="7.44083"><ele>1656</ele><time>2016-07-18T17:06:29Z</time></trkpt>
<trkpt lat="46.21612" lon="7.44086"><ele>1657</ele><time>2016-07-18T17:06:32Z</time></trkpt>
<trkpt lat="46.21611" lon="7.4409"><ele>1658</ele><time>2016-07-18T17:06:35Z</time></trkpt>
<trkpt lat="46.21609" lon="7.44094"><ele>1659.4</ele><time>2016-07-18T17:06:38Z</time></trkpt>
<trkpt lat="46.21607" lon="7.44099"><ele>1661</ele><time>2016-07-18T17:06:42Z</time></trkpt>
<trkpt lat="46.21601" lon="7.44125"><ele>1665.2</ele><time>2016-07-18T17:06:58Z</time></trkpt>
<trkpt lat="46.21591" lon="7.44148"><ele>1668.4</ele><time>2016-07-18T17:07:13Z</time></trkpt>
<trkpt lat="46.21589" lon="7.44152"><ele>1669</ele><time>2016-07-18T17:07:16Z</time></trkpt>
<trkpt lat="46.2158" lon="7.44175"><ele>1672.4</ele><time>2016-07-18T17:07:32Z</time></trkpt>
<trkpt lat="46.21576" lon="7.44186"><ele>1674.2</ele><time>2016-07-18T17:07:40Z</time></trkpt>
<trkpt lat="46.21575" lon="7.44194"><ele>1675.6</ele><time>2016-07-18T17:07:45Z</time></trkpt>
<trkpt lat="46.21566" lon="7.44218"><ele>1679.6</ele><time>2016-07-18T17:08:01Z</time></trkpt>
<trkpt lat="46.21563" lon="7.44225"><ele>1680.4</ele><time>2016-07-18T17:08:06Z</time></trkpt>
<trkpt lat="46.21559" lon="7.44231"><ele>1681.4</ele><time>2016-07-18T17:08:11Z</time></trkpt>
<trkpt lat="46.21553" lon="7.44237"><ele>1682.4</ele><time>2016-07-18T17:08:17Z</time></trkpt>
<trkpt lat="46.21551" lon="7.44242"><ele>1683.2</ele><time>2016-07-18T17:08:21Z</time></trkpt>
<trkpt lat="46.21541" lon="7.44266"><ele>1686.6</ele><time>2016-07-18T17:08:36Z</time></trkpt>
<trkpt lat="46.21541" lon="7.44267"><ele>1686.8</ele><time>2016-07-18T17:08:37Z</time></trkpt>
<trkpt lat="46.21532" lon="7.4429"><ele>1689.6</ele><time>2016-07-18T17:08:49Z</time></trkpt>
<trkpt lat="46.21526" lon="7.44308"><ele>1693</ele><time>2016-07-18T17:08:57Z</time></trkpt>
<trkpt lat="46.21529" lon="7.44302"><ele>1696.6</ele><time>2016-07-18T17:09:06Z</time></trkpt>
<trkpt lat="46.21535" lon="7.44295"><ele>1699.4</ele><time>2016-07-18T17:09:12Z</time></trkpt>
<trkpt lat="46.21551" lon="7.44281"><ele>1704.2</ele><time>2016-07-18T17:09:25Z</time></trkpt>
<trkpt lat="46.21558" lon="7.44276"><ele>1706.4</ele><time>2016-07-18T17:09:31Z</time></trkpt>
<trkpt lat="46.21575" lon="7.44271"><ele>1710.2</ele><time>2016-07-18T17:09:44Z</time></trkpt>
<trkpt lat="46.2158" lon="7.44272"><ele>1711</ele><time>2016-07-18T17:09:48Z</time></trkpt>
<trkpt lat="46.21587" lon="7.44274"><ele>1712.6</ele><time>2016-07-18T17:09:53Z</time></trkpt>
<trkpt lat="46.21591" lon="7.4428"><ele>1713.6</ele><time>2016-07-18T17:09:57Z</time></trkpt>
<trkpt lat="46.21588" lon="7.44293"><ele>1714.8</ele><time>2016-07-18T17:10:03Z</time></trkpt>
<trkpt lat="46.21586" lon="7.44295"><ele>1715</ele><time>2016-07-18T17:10:04Z</time></trkpt>
<trkpt lat="46.21576" lon="7.44297"><ele>1716.4</ele><time>2016-07-18T17:10:10Z</time></trkpt>
<trkpt lat="46.21558" lon="7.44306"><ele>1717</ele><time>2016-07-18T17:10:21Z</time></trkpt>
<trkpt lat="46.21544" lon="7.44322"><ele>1718.4</ele><time>2016-07-18T17:10:32Z</time></trkpt>
<trkpt lat="46.21537" lon="7.44346"><ele>1719.8</ele><time>2016-07-18T17:10:42Z</time></trkpt>
<trkpt lat="46.21534" lon="7.44373"><ele>1720.2</ele><time>2016-07-18T17:10:52Z</time></trkpt>
<trkpt lat="46.2153" lon="7.44399"><ele>1721</ele><time>2016-07-18T17:11:02Z</time></trkpt>
<trkpt lat="46.21526" lon="7.44425"><ele>1720.4</ele><time>2016-07-18T17:11:12Z</time></trkpt>
<trkpt lat="46.21523" lon="7.4445"><ele>1719.8</ele><time>2016-07-18T17:11:22Z</time></trkpt>
<trkpt lat="46.2152" lon="7.4446"><ele>1719.8</ele><time>2016-07-18T17:11:26Z</time></trkpt>
<trkpt lat="46.21513" lon="7.44492"><ele>1720.8</ele><time>2016-07-18T17:11:38Z</time></trkpt>
<trkpt lat="46.21507" lon="7.44517"><ele>1722.2</ele><time>2016-07-18T17:11:49Z</time></trkpt>
<trkpt lat="46.21499" lon="7.44541"><ele>1724.8</ele><time>2016-07-18T17:11:59Z</time></trkpt>
<trkpt lat="46.21493" lon="7.44562"><ele>1725.6</ele><time>2016-07-18T17:12:08Z</time></trkpt>
<trkpt lat="46.21487" lon="7.44588"><ele>1727.8</ele><time>2016-07-18T17:12:19Z</time></trkpt>
<trkpt lat="46.21485" lon="7.446"><ele>1728.4</ele><time>2016-07-18T17:12:24Z</time></trkpt>
<trkpt lat="46.21479" lon="7.44625"><ele>1730.4</ele><time>2016-07-18T17:12:34Z</time></trkpt>
<trkpt lat="46.2147" lon="7.44655"><ele>1733.2</ele><time>2016-07-18T17:12:47Z</time></trkpt>
<trkpt lat="46.21458" lon="7.44676"><ele>1735.8</ele><time>2016-07-18T17:12:57Z</time></trkpt>
<trkpt lat="46.21444" lon="7.44694"><ele>1738.8</ele><time>2016-07-18T17:13:07Z</time></trkpt>
<trkpt lat="46.2143" lon="7.44712"><ele>1742</ele><time>2016-07-18T17:13:17Z</time></trkpt>
<trkpt lat="46.21416" lon="7.4473"><ele>1744.6</ele><time>2016-07-18T17:13:27Z</time></trkpt>
<trkpt lat="46.21402" lon="7.44747"><ele>1747</ele><time>2016-07-18T17:13:36Z</time></trkpt>
<trkpt lat="46.21391" lon="7.44765"><ele>1747</ele><time>2016-07-18T17:13:45Z</time></trkpt>
<trkpt lat="46.21381" lon="7.44777"><ele>1747.2</ele><time>2016-07-18T17:13:52Z</time></trkpt>
<trkpt lat="46.21364" lon="7.44794"><ele>1749.2</ele><time>2016-07-18T17:14:04Z</time></trkpt>
<trkpt lat="46.21346" lon="7.44805"><ele>1749.6</ele><time>2016-07-18T17:14:14Z</time></trkpt>
<trkpt lat="46.21331" lon="7.44819"><ele>1749.8</ele><time>2016-07-18T17:14:23Z</time></trkpt>
<trkpt lat="46.21322" lon="7.44844"><ele>1750.2</ele><time>2016-07-18T17:14:34Z</time></trkpt>
<trkpt lat="46.21313" lon="7.44869"><ele>1751</ele><time>2016-07-18T17:14:44Z</time></trkpt>
<trkpt lat="46.21301" lon="7.44887"><ele>1752.4</ele><time>2016-07-18T17:14:54Z</time></trkpt>
<trkpt lat="46.21285" lon="7.44904"><ele>1754.4</ele><time>2016-07-18T17:15:04Z</time></trkpt>
<trkpt lat="46.21274" lon="7.44915"><ele>1755.4</ele><time>2016-07-18T17:15:11Z</time></trkpt>
<trkpt lat="46.21258" lon="7.44938"><ele>1757.2</ele><time>2016-07-18T17:15:23Z</time></trkpt>
<trkpt lat="46.21252" lon="7.44944"><ele>1758.4</ele><time>2016-07-18T17:15:27Z</time></trkpt>
<trkpt lat="46.21243" lon="7.44957"><ele>1761.2</ele><time>2016-07-18T17:15:34Z</time></trkpt>
<trkpt lat="46.21226" lon="7.44971"><ele>1764.2</ele><time>2016-07-18T17:15:44Z</time></trkpt>
<trkpt lat="46.2121" lon="7.44983"><ele>1767.8</ele><time>2016-07-18T17:15:53Z</time></trkpt>
<trkpt lat="46.21193" lon="7.44992"><ele>1772.2</ele><time>2016-07-18T17:16:02Z</time></trkpt>
<trkpt lat="46.21179" lon="7.45"><ele>1775.4</ele><time>2016-07-18T17:16:10Z</time></trkpt>
<trkpt lat="46.21161" lon="7.45012"><ele>1777</ele><time>2016-07-18T17:16:19Z</time></trkpt>
<trkpt lat="46.2115" lon="7.45022"><ele>1777</ele><time>2016-07-18T17:16:25Z</time></trkpt>
<trkpt lat="46.21134" lon="7.45034"><ele>1775.6</ele><time>2016-07-18T17:16:34Z</time></trkpt>
<trkpt lat="46.21121" lon="7.45045"><ele>1774.2</ele><time>2016-07-18T17:16:42Z</time></trkpt>
<trkpt lat="46.21094" lon="7.45065"><ele>1774</ele><time>2016-07-18T17:16:57Z</time></trkpt>
<trkpt lat="46.21078" lon="7.45078"><ele>1775</ele><time>2016-07-18T17:17:06Z</time></trkpt>
<trkpt lat="46.21068" lon="7.45087"><ele>1777.2</ele><time>2016-07-18T17:17:12Z</time></trkpt>
<trkpt lat="46.21066" lon="7.45089"><ele>1777.2</ele><time>2016-07-18T17:17:13Z</time></trkpt>
<trkpt lat="46.21049" lon="7.45102"><ele>1778.6</ele><time>2016-07-18T17:17:22Z</time></trkpt>
<trkpt lat="46.21042" lon="7.45107"><ele>1779.2</ele><time>2016-07-18T17:17:26Z</time></trkpt>
<trkpt lat="46.21024" lon="7.45117"><ele>1781.6</ele><time>2016-07-18T17:17:36Z</time></trkpt>
<trkpt lat="46.21004" lon="7.45125"><ele>1784.6</ele><time>2016-07-18T17:17:46Z</time></trkpt>
<trkpt lat="46.20986" lon="7.4513"><ele>1788.8</ele><time>2016-07-18T17:17:56Z</time></trkpt>
<trkpt lat="46.20967" lon="7.45135"><ele>1791.2</ele><time>2016-07-18T17:18:07Z</time></trkpt>
<trkpt lat="46.20957" lon="7.45135"><ele>1791.8</ele><time>2016-07-18T17:18:12Z</time></trkpt>
<trkpt lat="46.20939" lon="7.45139"><ele>1792.8</ele><time>2016-07-18T17:18:22Z</time></trkpt>
<trkpt lat="46.20919" lon="7.45143"><ele>1792.4</ele><time>2016-07-18T17:18:31Z</time></trkpt>
<trkpt lat="46.209" lon="7.45146"><ele>1791.6</ele><time>2016-07-18T17:18:41Z</time></trkpt>
<trkpt lat="46.20881" lon="7.45148"><ele>1792</ele><time>2016-07-18T17:18:51Z</time></trkpt>
<trkpt lat="46.20862" lon="7.45149"><ele>1794</ele><time>2016-07-18T17:19:01Z</time></trkpt>
<trkpt lat="46.2084" lon="7.45152"><ele>1798.4</ele><time>2016-07-18T17:19:12Z</time></trkpt>
<trkpt lat="46.20821" lon="7.45151"><ele>1800.8</ele><time>2016-07-18T17:19:21Z</time></trkpt>
<trkpt lat="46.20803" lon="7.45146"><ele>1801</ele><time>2016-07-18T17:19:31Z</time></trkpt>
<trkpt lat="46.20784" lon="7.45146"><ele>1801.4</ele><time>2016-07-18T17:19:41Z</time></trkpt>
<trkpt lat="46.20765" lon="7.45146"><ele>1802.4</ele><time>2016-07-18T17:19:51Z</time></trkpt>
<trkpt lat="46.20746" lon="7.45147"><ele>1803.8</ele><time>2016-07-18T17:20:01Z</time></trkpt>
<trkpt lat="46.20728" lon="7.45149"><ele>1807</ele><time>2016-07-18T17:20:10Z</time></trkpt>
<trkpt lat="46.20707" lon="7.45152"><ele>1809.2</ele><time>2016-07-18T17:20:20Z</time></trkpt>
<trkpt lat="46.20688" lon="7.45154"><ele>1811.4</ele><time>2016-07-18T17:20:30Z</time></trkpt>
<trkpt lat="46.2067" lon="7.45162"><ele>1813.8</ele><time>2016-07-18T17:20:39Z</time></trkpt>
<trkpt lat="46.20665" lon="7.45165"><ele>1815</ele><time>2016-07-18T17:20:44Z</time></trkpt>
<trkpt lat="46.2066" lon="7.45168"><ele>1815.6</ele><time>2016-07-18T17:20:51Z</time></trkpt>
<trkpt lat="46.20646" lon="7.45179"><ele>1816.4</ele><time>2016-07-18T17:20:59Z</time></trkpt>
<trkpt lat="46.20627" lon="7.45187"><ele>1816.6</ele><time>2016-07-18T17:21:08Z</time></trkpt>
<trkpt lat="46.2061" lon="7.45195"><ele>1815.6</ele><time>2016-07-18T17:21:17Z</time></trkpt>
<trkpt lat="46.206" lon="7.45197"><ele>1815.2</ele><time>2016-07-18T17:21:22Z</time></trkpt>
<trkpt lat="46.20581" lon="7.45196"><ele>1814.8</ele><time>2016-07-18T17:21:30Z</time></trkpt>
<trkpt lat="46.20556" lon="7.4519"><ele>1814.8</ele><time>2016-07-18T17:21:43Z</time></trkpt>
<trkpt lat="46.20538" lon="7.4519"><ele>1816.8</ele><time>2016-07-18T17:21:52Z</time></trkpt>
<trkpt lat="46.20519" lon="7.45187"><ele>1822.2</ele><time>2016-07-18T17:22:00Z</time></trkpt>
<trkpt lat="46.205" lon="7.45181"><ele>1826.2</ele><time>2016-07-18T17:22:09Z</time></trkpt>
<trkpt lat="46.2048" lon="7.4518"><ele>1829.8</ele><time>2016-07-18T17:22:18Z</time></trkpt>
<trkpt lat="46.2047" lon="7.45182"><ele>1832</ele><time>2016-07-18T17:22:23Z</time></trkpt>
<trkpt lat="46.20468" lon="7.45183"><ele>1832.4</ele><time>2016-07-18T17:22:24Z</time></trkpt>
<trkpt lat="46.20455" lon="7.45186"><ele>1833.8</ele><time>2016-07-18T17:22:31Z</time></trkpt>
<trkpt lat="46.20428" lon="7.4519"><ele>1838.2</ele><time>2016-07-18T17:22:45Z</time></trkpt>
<trkpt lat="46.20423" lon="7.45191"><ele>1839.2</ele><time>2016-07-18T17:22:48Z</time></trkpt>
<trkpt lat="46.20421" lon="7.45192"><ele>1839.4</ele><time>2016-07-18T17:22:49Z</time></trkpt>
<trkpt lat="46.20411" lon="7.45195"><ele>1840.6</ele><time>2016-07-18T17:22:54Z</time></trkpt>
<trkpt lat="46.20409" lon="7.45195"><ele>1840.8</ele><time>2016-07-18T17:22:55Z</time></trkpt>
<trkpt lat="46.2039" lon="7.45198"><ele>1843</ele><time>2016-07-18T17:23:05Z</time></trkpt>
<trkpt lat="46.20373" lon="7.45202"><ele>1844.6</ele><time>2016-07-18T17:23:16Z</time></trkpt>
<trkpt lat="46.20359" lon="7.45204"><ele>1843.6</ele><time>2016-07-18T17:23:23Z</time></trkpt>
<trkpt lat="46.20342" lon="7.45194"><ele>1841.8</ele><time>2016-07-18T17:23:30Z</time></trkpt>
<trkpt lat="46.20337" lon="7.45189"><ele>1840.6</ele><time>2016-07-18T17:23:32Z</time></trkpt>
<trkpt lat="46.20333" lon="7.45169"><ele>1839</ele><time>2016-07-18T17:23:36Z</time></trkpt>
<trkpt lat="46.20333" lon="7.4515"><ele>1837.6</ele><time>2016-07-18T17:23:39Z</time></trkpt>
<trkpt lat="46.2033" lon="7.45124"><ele>1834.2</ele><time>2016-07-18T17:23:44Z</time></trkpt>
<trkpt lat="46.20318" lon="7.45103"><ele>1832</ele><time>2016-07-18T17:23:49Z</time></trkpt>
<trkpt lat="46.20304" lon="7.45085"><ele>1831.4</ele><time>2016-07-18T17:23:53Z</time></trkpt>
<trkpt lat="46.20295" lon="7.45069"><ele>1832</ele><time>2016-07-18T17:23:56Z</time></trkpt>
<trkpt lat="46.20289" lon="7.4505"><ele>1832.2</ele><time>2016-07-18T17:23:59Z</time></trkpt>
<trkpt lat="46.20282" lon="7.45023"><ele>1832.8</ele><time>2016-07-18T17:24:03Z</time></trkpt>
<trkpt lat="46.20278" lon="7.45009"><ele>1833</ele><time>2016-07-18T17:24:05Z</time></trkpt>
<trkpt lat="46.20268" lon="7.44985"><ele>1833.6</ele><time>2016-07-18T17:24:09Z</time></trkpt>
<trkpt lat="46.20249" lon="7.4497"><ele>1833.2</ele><time>2016-07-18T17:24:13Z</time></trkpt>
<trkpt lat="46.20228" lon="7.44973"><ele>1832.4</ele><time>2016-07-18T17:24:17Z</time></trkpt>
<trkpt lat="46.20223" lon="7.44976"><ele>1832.2</ele><time>2016-07-18T17:24:18Z</time></trkpt>
<trkpt lat="46.20218" lon="7.44978"><ele>1832</ele><time>2016-07-18T17:24:19Z</time></trkpt>
<trkpt lat="46.202" lon="7.44987"><ele>1831.2</ele><time>2016-07-18T17:24:22Z</time></trkpt>
<trkpt lat="46.20181" lon="7.45006"><ele>1829.6</ele><time>2016-07-18T17:24:26Z</time></trkpt>
<trkpt lat="46.20172" lon="7.45017"><ele>1829</ele><time>2016-07-18T17:24:28Z</time></trkpt>
<trkpt lat="46.2016" lon="7.45045"><ele>1827</ele><time>2016-07-18T17:24:32Z</time></trkpt>
<trkpt lat="46.20157" lon="7.4506"><ele>1826</ele><time>2016-07-18T17:24:34Z</time></trkpt>
<trkpt lat="46.20152" lon="7.45093"><ele>1825.2</ele><time>2016-07-18T17:24:38Z</time></trkpt>
<trkpt lat="46.20147" lon="7.4511"><ele>1824.6</ele><time>2016-07-18T17:24:40Z</time></trkpt>
<trkpt lat="46.20134" lon="7.45138"><ele>1823.6</ele><time>2016-07-18T17:24:44Z</time></trkpt>
<trkpt lat="46.2013" lon="7.45143"><ele>1823.2</ele><time>2016-07-18T17:24:45Z</time></trkpt>
<trkpt lat="46.20116" lon="7.45155"><ele>1822.4</ele><time>2016-07-18T17:24:48Z</time></trkpt>
<trkpt lat="46.20094" lon="7.45157"><ele>1823.2</ele><time>2016-07-18T17:24:52Z</time></trkpt>
<trkpt lat="46.20088" lon="7.45159"><ele>1823</ele><time>2016-07-18T17:24:53Z</time></trkpt>
<trkpt lat="46.20067" lon="7.45171"><ele>1821.2</ele><time>2016-07-18T17:24:57Z</time></trkpt>
<trkpt lat="46.20061" lon="7.45175"><ele>1821.2</ele><time>2016-07-18T17:24:59Z</time></trkpt>
<trkpt lat="46.20058" lon="7.45178"><ele>1821.4</ele><time>2016-07-18T17:25:01Z</time></trkpt>
<trkpt lat="46.2006" lon="7.45164"><ele>1820.4</ele><time>2016-07-18T17:25:07Z</time></trkpt>
<trkpt lat="46.20071" lon="7.45144"><ele>1820.2</ele><time>2016-07-18T17:25:11Z</time></trkpt>
<trkpt lat="46.20087" lon="7.45118"><ele>1819</ele><time>2016-07-18T17:25:15Z</time></trkpt>
<trkpt lat="46.20092" lon="7.45111"><ele>1818.8</ele><time>2016-07-18T17:25:16Z</time></trkpt>
<trkpt lat="46.20107" lon="7.45092"><ele>1817.8</ele><time>2016-07-18T17:25:19Z</time></trkpt>
<trkpt lat="46.2012" lon="7.45068"><ele>1817.6</ele><time>2016-07-18T17:25:22Z</time></trkpt>
<trkpt lat="46.20131" lon="7.45041"><ele>1816.8</ele><time>2016-07-18T17:25:25Z</time></trkpt>
<trkpt lat="46.20136" lon="7.45024"><ele>1816</ele><time>2016-07-18T17:25:27Z</time></trkpt>
<trkpt lat="46.20138" lon="7.45015"><ele>1815.8</ele><time>2016-07-18T17:25:28Z</time></trkpt>
<trkpt lat="46.2014" lon="7.45007"><ele>1815.6</ele><time>2016-07-18T17:25:29Z</time></trkpt>
<trkpt lat="46.20143" lon="7.44985"><ele>1814.6</ele><time>2016-07-18T17:25:32Z</time></trkpt>
<trkpt lat="46.20143" lon="7.44966"><ele>1814.2</ele><time>2016-07-18T17:25:35Z</time></trkpt>
<trkpt lat="46.20145" lon="7.44954"><ele>1814.2</ele><time>2016-07-18T17:25:37Z</time></trkpt>
<trkpt lat="46.20149" lon="7.44942"><ele>1814</ele><time>2016-07-18T17:25:39Z</time></trkpt>
<trkpt lat="46.20161" lon="7.44924"><ele>1814.4</ele><time>2016-07-18T17:25:43Z</time></trkpt>
<trkpt lat="46.20168" lon="7.44916"><ele>1814.4</ele><time>2016-07-18T17:25:45Z</time></trkpt>
<trkpt lat="46.20182" lon="7.44897"><ele>1814.4</ele><time>2016-07-18T17:25:49Z</time></trkpt>
<trkpt lat="46.20196" lon="7.44873"><ele>1814.6</ele><time>2016-07-18T17:25:53Z</time></trkpt>
<trkpt lat="46.202" lon="7.44866"><ele>1814.4</ele><time>2016-07-18T17:25:54Z</time></trkpt>
<trkpt lat="46.20216" lon="7.44849"><ele>1813.4</ele><time>2016-07-18T17:25:57Z</time></trkpt>
<trkpt lat="46.20233" lon="7.44833"><ele>1812.2</ele><time>2016-07-18T17:26:00Z</time></trkpt>
<trkpt lat="46.20237" lon="7.44828"><ele>1812</ele><time>2016-07-18T17:26:01Z</time></trkpt>
<trkpt lat="46.20244" lon="7.44818"><ele>1811.2</ele><time>2016-07-18T17:26:03Z</time></trkpt>
<trkpt lat="46.20262" lon="7.44815"><ele>1809.6</ele><time>2016-07-18T17:26:07Z</time></trkpt>
<trkpt lat="46.20278" lon="7.44808"><ele>1808.8</ele><time>2016-07-18T17:26:10Z</time></trkpt>
<trkpt lat="46.20284" lon="7.44806"><ele>1808.6</ele><time>2016-07-18T17:26:11Z</time></trkpt>
<trkpt lat="46.20301" lon="7.44805"><ele>1807.4</ele><time>2016-07-18T17:26:14Z</time></trkpt>
<trkpt lat="46.20307" lon="7.44807"><ele>1806.8</ele><time>2016-07-18T17:26:15Z</time></trkpt>
<trkpt lat="46.20326" lon="7.4482"><ele>1803.8</ele><time>2016-07-18T17:26:18Z</time></trkpt>
<trkpt lat="46.20342" lon="7.44834"><ele>1801.8</ele><time>2016-07-18T17:26:21Z</time></trkpt>
<trkpt lat="46.20346" lon="7.44837"><ele>1801.2</ele><time>2016-07-18T17:26:22Z</time></trkpt>
<trkpt lat="46.20347" lon="7.4482"><ele>1796.4</ele><time>2016-07-18T17:26:27Z</time></trkpt>
<trkpt lat="46.20329" lon="7.44808"><ele>1792.6</ele><time>2016-07-18T17:26:31Z</time></trkpt>
<trkpt lat="46.20324" lon="7.44803"><ele>1792.2</ele><time>2016-07-18T17:26:32Z</time></trkpt>
<trkpt lat="46.2031" lon="7.44787"><ele>1790.6</ele><time>2016-07-18T17:26:35Z</time></trkpt>
<trkpt lat="46.20304" lon="7.44782"><ele>1790.2</ele><time>2016-07-18T17:26:36Z</time></trkpt>
<trkpt lat="46.20297" lon="7.44777"><ele>1788.8</ele><time>2016-07-18T17:26:37Z</time></trkpt>
<trkpt lat="46.20276" lon="7.44767"><ele>1786.4</ele><time>2016-07-18T17:26:40Z</time></trkpt>
<trkpt lat="46.20253" lon="7.44757"><ele>1783.6</ele><time>2016-07-18T17:26:43Z</time></trkpt>
<trkpt lat="46.20246" lon="7.44754"><ele>1782.8</ele><time>2016-07-18T17:26:44Z</time></trkpt>
<trkpt lat="46.20239" lon="7.44752"><ele>1782.2</ele><time>2016-07-18T17:26:45Z</time></trkpt>
<trkpt lat="46.20225" lon="7.44751"><ele>1780.8</ele><time>2016-07-18T17:26:47Z</time></trkpt>
<trkpt lat="46.20212" lon="7.44751"><ele>1779.8</ele><time>2016-07-18T17:26:49Z</time></trkpt>
<trkpt lat="46.20191" lon="7.44764"><ele>1777</ele><time>2016-07-18T17:26:53Z</time></trkpt>
<trkpt lat="46.20179" lon="7.44773"><ele>1775.8</ele><time>2016-07-18T17:26:55Z</time></trkpt>
<trkpt lat="46.2016" lon="7.44782"><ele>1775.2</ele><time>2016-07-18T17:26:58Z</time></trkpt>
<trkpt lat="46.20142" lon="7.44794"><ele>1774.4</ele><time>2016-07-18T17:27:01Z</time></trkpt>
<trkpt lat="46.20135" lon="7.44796"><ele>1773.8</ele><time>2016-07-18T17:27:02Z</time></trkpt>
<trkpt lat="46.20113" lon="7.44796"><ele>1772.6</ele><time>2016-07-18T17:27:06Z</time></trkpt>
<trkpt lat="46.20109" lon="7.44797"><ele>1772.4</ele><time>2016-07-18T17:27:07Z</time></trkpt>
<trkpt lat="46.20092" lon="7.44812"><ele>1769.4</ele><time>2016-07-18T17:27:12Z</time></trkpt>
<trkpt lat="46.20089" lon="7.44828"><ele>1767.4</ele><time>2016-07-18T17:27:15Z</time></trkpt>
<trkpt lat="46.20086" lon="7.44846"><ele>1765.6</ele><time>2016-07-18T17:27:18Z</time></trkpt>
<trkpt lat="46.20078" lon="7.44863"><ele>1769.4</ele><time>2016-07-18T17:27:21Z</time></trkpt>
<trkpt lat="46.20073" lon="7.4487"><ele>1768.8</ele><time>2016-07-18T17:27:22Z</time></trkpt>
<trkpt lat="46.20065" lon="7.44884"><ele>1768.6</ele><time>2016-07-18T17:27:24Z</time></trkpt>
<trkpt lat="46.20054" lon="7.44908"><ele>1768.2</ele><time>2016-07-18T17:27:27Z</time></trkpt>
<trkpt lat="46.20049" lon="7.44915"><ele>1767.6</ele><time>2016-07-18T17:27:28Z</time></trkpt>
<trkpt lat="46.20033" lon="7.44933"><ele>1764.6</ele><time>2016-07-18T17:27:31Z</time></trkpt>
<trkpt lat="46.20022" lon="7.44957"><ele>1760</ele><time>2016-07-18T17:27:34Z</time></trkpt>
<trkpt lat="46.20018" lon="7.44965"><ele>1758.6</ele><time>2016-07-18T17:27:35Z</time></trkpt>
<trkpt lat="46.20014" lon="7.44972"><ele>1757.2</ele><time>2016-07-18T17:27:36Z</time></trkpt>
<trkpt lat="46.19997" lon="7.44969"><ele>1751.6</ele><time>2016-07-18T17:27:41Z</time></trkpt>
<trkpt lat="46.20007" lon="7.44947"><ele>1748</ele><time>2016-07-18T17:27:45Z</time></trkpt>
<trkpt lat="46.20011" lon="7.44941"><ele>1747.2</ele><time>2016-07-18T17:27:46Z</time></trkpt>
<trkpt lat="46.20014" lon="7.44934"><ele>1746</ele><time>2016-07-18T17:27:47Z</time></trkpt>
<trkpt lat="46.2002" lon="7.44917"><ele>1743.4</ele><time>2016-07-18T17:27:49Z</time></trkpt>
<trkpt lat="46.20023" lon="7.44908"><ele>1742.6</ele><time>2016-07-18T17:27:50Z</time></trkpt>
<trkpt lat="46.20024" lon="7.44877"><ele>1739.8</ele><time>2016-07-18T17:27:53Z</time></trkpt>
<trkpt lat="46.20021" lon="7.44844"><ele>1736.8</ele><time>2016-07-18T17:27:56Z</time></trkpt>
<trkpt lat="46.20019" lon="7.44834"><ele>1735.8</ele><time>2016-07-18T17:27:57Z</time></trkpt>
<trkpt lat="46.20015" lon="7.44816"><ele>1733.6</ele><time>2016-07-18T17:27:59Z</time></trkpt>
<trkpt lat="46.20004" lon="7.44788"><ele>1729.6</ele><time>2016-07-18T17:28:03Z</time></trkpt>
<trkpt lat="46.20003" lon="7.44774"><ele>1728</ele><time>2016-07-18T17:28:05Z</time></trkpt>
<trkpt lat="46.20005" lon="7.44767"><ele>1727.2</ele><time>2016-07-18T17:28:06Z</time></trkpt>
<trkpt lat="46.20006" lon="7.44759"><ele>1726.4</ele><time>2016-07-18T17:28:07Z</time></trkpt>
<trkpt lat="46.20009" lon="7.44752"><ele>1725.2</ele><time>2016-07-18T17:28:08Z</time></trkpt>
<trkpt lat="46.20019" lon="7.44726"><ele>1722.6</ele><time>2016-07-18T17:28:11Z</time></trkpt>
<trkpt lat="46.20027" lon="7.44691"><ele>1719.6</ele><time>2016-07-18T17:28:14Z</time></trkpt>
<trkpt lat="46.20035" lon="7.44655"><ele>1716.2</ele><time>2016-07-18T17:28:17Z</time></trkpt>
<trkpt lat="46.2004" lon="7.4463"><ele>1713.6</ele><time>2016-07-18T17:28:19Z</time></trkpt>
<trkpt lat="46.2004" lon="7.44617"><ele>1712.6</ele><time>2016-07-18T17:28:20Z</time></trkpt>
<trkpt lat="46.20042" lon="7.44583"><ele>1709.2</ele><time>2016-07-18T17:28:23Z</time></trkpt>
<trkpt lat="46.20044" lon="7.44562"><ele>1707.4</ele><time>2016-07-18T17:28:25Z</time></trkpt>
<trkpt lat="46.20053" lon="7.44532"><ele>1703.8</ele><time>2016-07-18T17:28:28Z</time></trkpt>
<trkpt lat="46.20064" lon="7.44505"><ele>1701.6</ele><time>2016-07-18T17:28:31Z</time></trkpt>
<trkpt lat="46.20068" lon="7.44498"><ele>1700.2</ele><time>2016-07-18T17:28:32Z</time></trkpt>
<trkpt lat="46.20083" lon="7.44475"><ele>1697.6</ele><time>2016-07-18T17:28:35Z</time></trkpt>
<trkpt lat="46.20099" lon="7.44455"><ele>1695.6</ele><time>2016-07-18T17:28:38Z</time></trkpt>
<trkpt lat="46.20103" lon="7.44448"><ele>1694.6</ele><time>2016-07-18T17:28:39Z</time></trkpt>
<trkpt lat="46.20109" lon="7.44421"><ele>1692.4</ele><time>2016-07-18T17:28:42Z</time></trkpt>
<trkpt lat="46.20111" lon="7.44394"><ele>1689.6</ele><time>2016-07-18T17:28:45Z</time></trkpt>
<trkpt lat="46.20118" lon="7.44368"><ele>1686.4</ele><time>2016-07-18T17:28:48Z</time></trkpt>
<trkpt lat="46.2013" lon="7.44338"><ele>1683</ele><time>2016-07-18T17:28:51Z</time></trkpt>
<trkpt lat="46.20144" lon="7.44308"><ele>1680</ele><time>2016-07-18T17:28:54Z</time></trkpt>
<trkpt lat="46.20156" lon="7.44279"><ele>1677.6</ele><time>2016-07-18T17:28:57Z</time></trkpt>
<trkpt lat="46.20168" lon="7.44255"><ele>1674.2</ele><time>2016-07-18T17:29:00Z</time></trkpt>
<trkpt lat="46.20176" lon="7.44243"><ele>1672</ele><time>2016-07-18T17:29:02Z</time></trkpt>
<trkpt lat="46.20198" lon="7.44231"><ele>1668.4</ele><time>2016-07-18T17:29:06Z</time></trkpt>
<trkpt lat="46.20209" lon="7.44231"><ele>1666.4</ele><time>2016-07-18T17:29:08Z</time></trkpt>
<trkpt lat="46.2022" lon="7.4423"><ele>1665.6</ele><time>2016-07-18T17:29:10Z</time></trkpt>
<trkpt lat="46.20236" lon="7.44216"><ele>1665</ele><time>2016-07-18T17:29:14Z</time></trkpt>
<trkpt lat="46.20239" lon="7.44211"><ele>1664.8</ele><time>2016-07-18T17:29:15Z</time></trkpt>
<trkpt lat="46.20247" lon="7.44196"><ele>1664</ele><time>2016-07-18T17:29:19Z</time></trkpt>
<trkpt lat="46.20249" lon="7.44189"><ele>1663.8</ele><time>2016-07-18T17:29:25Z</time></trkpt>
<trkpt lat="46.20248" lon="7.44189"><ele>1664.2</ele><time>2016-07-18T17:29:31Z</time></trkpt>
<trkpt lat="46.20248" lon="7.44189"><ele>1664.4</ele><time>2016-07-18T17:29:32Z</time></trkpt>
<trkpt lat="46.20248" lon="7.44189"><ele>1664.4</ele><time>2016-07-18T17:29:33Z</time></trkpt>
<trkpt lat="46.20248" lon="7.44189"><ele>1664.6</ele><time>2016-07-18T17:29:34Z</time></trkpt>
<trkpt lat="46.20245" lon="7.44189"><ele>1664.6</ele><time>2016-07-18T17:29:49Z</time></trkpt>
<trkpt lat="46.20245" lon="7.4419"><ele>1664.4</ele><time>2016-07-18T17:29:50Z</time></trkpt>
<trkpt lat="46.20244" lon="7.4419"><ele>1664.4</ele><time>2016-07-18T17:29:51Z</time></trkpt>
<trkpt lat="46.20244" lon="7.4419"><ele>1664</ele><time>2016-07-18T17:29:58Z</time></trkpt>
<trkpt lat="46.20243" lon="7.44189"><ele>1665.8</ele><time>2016-07-18T17:30:14Z</time></trkpt>
<trkpt lat="46.2024" lon="7.44189"><ele>1665.4</ele><time>2016-07-18T17:30:16Z</time></trkpt>
<trkpt lat="46.20232" lon="7.44188"><ele>1665.4</ele><time>2016-07-18T17:30:19Z</time></trkpt>
<trkpt lat="46.20212" lon="7.4418"><ele>1664.4</ele><time>2016-07-18T17:30:25Z</time></trkpt>
<trkpt lat="46.20194" lon="7.44169"><ele>1662</ele><time>2016-07-18T17:30:30Z</time></trkpt>
<trkpt lat="46.20176" lon="7.4417"><ele>1660.4</ele><time>2016-07-18T17:30:34Z</time></trkpt>
<trkpt lat="46.2017" lon="7.44171"><ele>1660</ele><time>2016-07-18T17:30:35Z</time></trkpt>
<trkpt lat="46.20149" lon="7.44167"><ele>1659.2</ele><time>2016-07-18T17:30:39Z</time></trkpt>
<trkpt lat="46.20128" lon="7.44163"><ele>1658</ele><time>2016-07-18T17:30:43Z</time></trkpt>
<trkpt lat="46.20105" lon="7.44164"><ele>1655.4</ele><time>2016-07-18T17:30:47Z</time></trkpt>
<trkpt lat="46.20086" lon="7.44165"><ele>1653.4</ele><time>2016-07-18T17:30:50Z</time></trkpt>
<trkpt lat="46.20064" lon="7.44167"><ele>1650.8</ele><time>2016-07-18T17:30:54Z</time></trkpt>
<trkpt lat="46.20054" lon="7.44166"><ele>1650.2</ele><time>2016-07-18T17:30:56Z</time></trkpt>
<trkpt lat="46.20035" lon="7.44158"><ele>1648.8</ele><time>2016-07-18T17:31:00Z</time></trkpt>
<trkpt lat="46.2003" lon="7.44156"><ele>1648.4</ele><time>2016-07-18T17:31:01Z</time></trkpt>
<trkpt lat="46.20011" lon="7.44156"><ele>1645.8</ele><time>2016-07-18T17:31:04Z</time></trkpt>
<trkpt lat="46.19994" lon="7.44165"><ele>1644.4</ele><time>2016-07-18T17:31:07Z</time></trkpt>
<trkpt lat="46.19976" lon="7.44177"><ele>1643.4</ele><time>2016-07-18T17:31:10Z</time></trkpt>
<trkpt lat="46.19965" lon="7.44188"><ele>1642.8</ele><time>2016-07-18T17:31:12Z</time></trkpt>
<trkpt lat="46.19947" lon="7.44209"><ele>1641.8</ele><time>2016-07-18T17:31:15Z</time></trkpt>
<trkpt lat="46.19928" lon="7.44232"><ele>1640.8</ele><time>2016-07-18T17:31:18Z</time></trkpt>
<trkpt lat="46.19909" lon="7.4425"><ele>1639.6</ele><time>2016-07-18T17:31:21Z</time></trkpt>
<trkpt lat="46.19898" lon="7.44265"><ele>1638.8</ele><time>2016-07-18T17:31:23Z</time></trkpt>
<trkpt lat="46.19884" lon="7.44293"><ele>1636.8</ele><time>2016-07-18T17:31:26Z</time></trkpt>
<trkpt lat="46.1988" lon="7.44302"><ele>1636.2</ele><time>2016-07-18T17:31:27Z</time></trkpt>
<trkpt lat="46.19875" lon="7.44312"><ele>1635.8</ele><time>2016-07-18T17:31:28Z</time></trkpt>
<trkpt lat="46.19871" lon="7.44321"><ele>1635.2</ele><time>2016-07-18T17:31:29Z</time></trkpt>
<trkpt lat="46.19861" lon="7.44339"><ele>1634.4</ele><time>2016-07-18T17:31:31Z</time></trkpt>
<trkpt lat="46.19844" lon="7.44356"><ele>1632.4</ele><time>2016-07-18T17:31:34Z</time></trkpt>
<trkpt lat="46.19833" lon="7.44381"><ele>1629</ele><time>2016-07-18T17:31:37Z</time></trkpt>
<trkpt lat="46.19829" lon="7.44406"><ele>1623.6</ele><time>2016-07-18T17:31:39Z</time></trkpt>
<trkpt lat="46.19825" lon="7.44434"><ele>1618.6</ele><time>2016-07-18T17:31:41Z</time></trkpt>
<trkpt lat="46.19822" lon="7.44448"><ele>1616.8</ele><time>2016-07-18T17:31:42Z</time></trkpt>
<trkpt lat="46.19814" lon="7.44475"><ele>1613.8</ele><time>2016-07-18T17:31:44Z</time></trkpt>
<trkpt lat="46.19807" lon="7.44501"><ele>1610.6</ele><time>2016-07-18T17:31:46Z</time></trkpt>
<trkpt lat="46.19806" lon="7.44535"><ele>1605.4</ele><time>2016-07-18T17:31:49Z</time></trkpt>
<trkpt lat="46.19806" lon="7.44553"><ele>1603</ele><time>2016-07-18T17:31:51Z</time></trkpt>
<trkpt lat="46.19802" lon="7.44562"><ele>1600.8</ele><time>2016-07-18T17:31:53Z</time></trkpt>
<trkpt lat="46.19792" lon="7.4454"><ele>1596.6</ele><time>2016-07-18T17:31:58Z</time></trkpt>
<trkpt lat="46.19792" lon="7.44532"><ele>1595.8</ele><time>2016-07-18T17:31:59Z</time></trkpt>
<trkpt lat="46.19791" lon="7.44504"><ele>1593.2</ele><time>2016-07-18T17:32:02Z</time></trkpt>
<trkpt lat="46.1979" lon="7.44468"><ele>1590.4</ele><time>2016-07-18T17:32:05Z</time></trkpt>
<trkpt lat="46.1979" lon="7.44441"><ele>1588.8</ele><time>2016-07-18T17:32:07Z</time></trkpt>
<trkpt lat="46.19789" lon="7.44411"><ele>1587.4</ele><time>2016-07-18T17:32:09Z</time></trkpt>
<trkpt lat="46.19788" lon="7.4438"><ele>1585.6</ele><time>2016-07-18T17:32:11Z</time></trkpt>
<trkpt lat="46.19787" lon="7.44346"><ele>1583.6</ele><time>2016-07-18T17:32:13Z</time></trkpt>
<trkpt lat="46.19786" lon="7.44312"><ele>1581</ele><time>2016-07-18T17:32:15Z</time></trkpt>
<trkpt lat="46.19785" lon="7.44279"><ele>1578.6</ele><time>2016-07-18T17:32:17Z</time></trkpt>
<trkpt lat="46.19784" lon="7.44247"><ele>1576.4</ele><time>2016-07-18T17:32:19Z</time></trkpt>
<trkpt lat="46.19783" lon="7.44215"><ele>1574.2</ele><time>2016-07-18T17:32:21Z</time></trkpt>
<trkpt lat="46.19781" lon="7.44184"><ele>1571.8</ele><time>2016-07-18T17:32:23Z</time></trkpt>
<trkpt lat="46.1978" lon="7.44153"><ele>1569.6</ele><time>2016-07-18T17:32:25Z</time></trkpt>
<trkpt lat="46.19779" lon="7.44123"><ele>1567.6</ele><time>2016-07-18T17:32:27Z</time></trkpt>
<trkpt lat="46.19778" lon="7.44092"><ele>1565.2</ele><time>2016-07-18T17:32:29Z</time></trkpt>
<trkpt lat="46.19779" lon="7.44059"><ele>1562.6</ele><time>2016-07-18T17:32:31Z</time></trkpt>
<trkpt lat="46.19784" lon="7.44026"><ele>1560.2</ele><time>2016-07-18T17:32:33Z</time></trkpt>
<trkpt lat="46.19788" lon="7.43992"><ele>1557.6</ele><time>2016-07-18T17:32:35Z</time></trkpt>
<trkpt lat="46.19793" lon="7.43959"><ele>1555.2</ele><time>2016-07-18T17:32:37Z</time></trkpt>
<trkpt lat="46.19799" lon="7.43926"><ele>1552.6</ele><time>2016-07-18T17:32:39Z</time></trkpt>
<trkpt lat="46.19803" lon="7.43911"><ele>1551.2</ele><time>2016-07-18T17:32:40Z</time></trkpt>
<trkpt lat="46.19811" lon="7.43881"><ele>1549.2</ele><time>2016-07-18T17:32:42Z</time></trkpt>
<trkpt lat="46.19822" lon="7.43852"><ele>1547</ele><time>2016-07-18T17:32:44Z</time></trkpt>
<trkpt lat="46.19834" lon="7.43824"><ele>1544.4</ele><time>2016-07-18T17:32:46Z</time></trkpt>
<trkpt lat="46.19849" lon="7.43798"><ele>1542</ele><time>2016-07-18T17:32:48Z</time></trkpt>
<trkpt lat="46.19864" lon="7.43772"><ele>1539.6</ele><time>2016-07-18T17:32:50Z</time></trkpt>
<trkpt lat="46.1988" lon="7.43745"><ele>1537.4</ele><time>2016-07-18T17:32:52Z</time></trkpt>
<trkpt lat="46.19894" lon="7.43718"><ele>1534.6</ele><time>2016-07-18T17:32:54Z</time></trkpt>
<trkpt lat="46.19905" lon="7.43688"><ele>1532.8</ele><time>2016-07-18T17:32:56Z</time></trkpt>
<trkpt lat="46.19912" lon="7.43657"><ele>1529.8</ele><time>2016-07-18T17:32:58Z</time></trkpt>
<trkpt lat="46.19919" lon="7.43625"><ele>1527.4</ele><time>2016-07-18T17:33:00Z</time></trkpt>
<trkpt lat="46.19925" lon="7.43594"><ele>1525.2</ele><time>2016-07-18T17:33:02Z</time></trkpt>
<trkpt lat="46.19928" lon="7.43564"><ele>1523.2</ele><time>2016-07-18T17:33:04Z</time></trkpt>
<trkpt lat="46.19927" lon="7.43535"><ele>1520.6</ele><time>2016-07-18T17:33:06Z</time></trkpt>
<trkpt lat="46.19922" lon="7.43508"><ele>1519.4</ele><time>2016-07-18T17:33:08Z</time></trkpt>
<trkpt lat="46.19919" lon="7.43496"><ele>1518.8</ele><time>2016-07-18T17:33:09Z</time></trkpt>
<trkpt lat="46.19917" lon="7.43484"><ele>1518</ele><time>2016-07-18T17:33:10Z</time></trkpt>
<trkpt lat="46.19917" lon="7.43462"><ele>1516.6</ele><time>2016-07-18T17:33:12Z</time></trkpt>
<trkpt lat="46.19919" lon="7.4345"><ele>1515.8</ele><time>2016-07-18T17:33:13Z</time></trkpt>
<trkpt lat="46.19922" lon="7.43438"><ele>1514.8</ele><time>2016-07-18T17:33:14Z</time></trkpt>
<trkpt lat="46.19928" lon="7.43413"><ele>1512.6</ele><time>2016-07-18T17:33:16Z</time></trkpt>
<trkpt lat="46.19935" lon="7.43385"><ele>1510.4</ele><time>2016-07-18T17:33:18Z</time></trkpt>
<trkpt lat="46.19943" lon="7.43356"><ele>1508.4</ele><time>2016-07-18T17:33:20Z</time></trkpt>
<trkpt lat="46.1995" lon="7.43327"><ele>1506.2</ele><time>2016-07-18T17:33:22Z</time></trkpt>
<trkpt lat="46.19957" lon="7.43301"><ele>1503.8</ele><time>2016-07-18T17:33:24Z</time></trkpt>
<trkpt lat="46.19964" lon="7.43277"><ele>1502.2</ele><time>2016-07-18T17:33:26Z</time></trkpt>
<trkpt lat="46.19968" lon="7.43266"><ele>1501.2</ele><time>2016-07-18T17:33:27Z</time></trkpt>
<trkpt lat="46.19985" lon="7.43242"><ele>1498</ele><time>2016-07-18T17:33:30Z</time></trkpt>
<trkpt lat="46.19992" lon="7.43237"><ele>1497</ele><time>2016-07-18T17:33:31Z</time></trkpt>
<trkpt lat="46.2001" lon="7.4323"><ele>1495.6</ele><time>2016-07-18T17:33:34Z</time></trkpt>
<trkpt lat="46.20025" lon="7.43226"><ele>1494.4</ele><time>2016-07-18T17:33:37Z</time></trkpt>
<trkpt lat="46.20044" lon="7.43237"><ele>1493.4</ele><time>2016-07-18T17:33:42Z</time></trkpt>
<trkpt lat="46.20061" lon="7.43251"><ele>1493.6</ele><time>2016-07-18T17:33:48Z</time></trkpt>
<trkpt lat="46.20063" lon="7.43252"><ele>1494.2</ele><time>2016-07-18T17:33:49Z</time></trkpt>
<trkpt lat="46.2007" lon="7.43256"><ele>1494.8</ele><time>2016-07-18T17:33:52Z</time></trkpt>
<trkpt lat="46.20078" lon="7.43265"><ele>1496</ele><time>2016-07-18T17:33:57Z</time></trkpt>
<trkpt lat="46.20083" lon="7.43275"><ele>1496.6</ele><time>2016-07-18T17:34:01Z</time></trkpt>
<trkpt lat="46.20087" lon="7.43288"><ele>1497</ele><time>2016-07-18T17:34:05Z</time></trkpt>
<trkpt lat="46.20088" lon="7.43291"><ele>1497.4</ele><time>2016-07-18T17:34:06Z</time></trkpt>
<trkpt lat="46.20101" lon="7.43328"><ele>1500.8</ele><time>2016-07-18T17:34:19Z</time></trkpt>
<trkpt lat="46.20104" lon="7.43339"><ele>1502</ele><time>2016-07-18T17:34:23Z</time></trkpt>
<trkpt lat="46.20107" lon="7.4335"><ele>1503.4</ele><time>2016-07-18T17:34:27Z</time></trkpt>
<trkpt lat="46.2011" lon="7.43374"><ele>1507.8</ele><time>2016-07-18T17:34:36Z</time></trkpt>
<trkpt lat="46.20115" lon="7.43399"><ele>1510.6</ele><time>2016-07-18T17:34:46Z</time></trkpt>
<trkpt lat="46.2012" lon="7.43415"><ele>1511.2</ele><time>2016-07-18T17:34:52Z</time></trkpt>
<trkpt lat="46.20123" lon="7.43422"><ele>1511.6</ele><time>2016-07-18T17:34:55Z</time></trkpt>
<trkpt lat="46.20125" lon="7.4343"><ele>1512.2</ele><time>2016-07-18T17:34:58Z</time></trkpt>
<trkpt lat="46.20132" lon="7.43446"><ele>1513</ele><time>2016-07-18T17:35:05Z</time></trkpt>
<trkpt lat="46.20137" lon="7.43454"><ele>1513.8</ele><time>2016-07-18T17:35:09Z</time></trkpt>
<trkpt lat="46.20138" lon="7.43456"><ele>1513.8</ele><time>2016-07-18T17:35:10Z</time></trkpt>
<trkpt lat="46.20147" lon="7.43471"><ele>1515.2</ele><time>2016-07-18T17:35:18Z</time></trkpt>
<trkpt lat="46.20162" lon="7.43489"><ele>1515.8</ele><time>2016-07-18T17:35:28Z</time></trkpt>
<trkpt lat="46.20175" lon="7.43509"><ele>1517</ele><time>2016-07-18T17:35:39Z</time></trkpt>
<trkpt lat="46.2018" lon="7.43523"><ele>1518.4</ele><time>2016-07-18T17:35:46Z</time></trkpt>
<trkpt lat="46.20181" lon="7.43525"><ele>1518.6</ele><time>2016-07-18T17:35:47Z</time></trkpt>
<trkpt lat="46.20186" lon="7.43539"><ele>1520.2</ele><time>2016-07-18T17:35:53Z</time></trkpt>
<trkpt lat="46.20191" lon="7.43551"><ele>1521.6</ele><time>2016-07-18T17:35:58Z</time></trkpt>
<trkpt lat="46.20201" lon="7.43573"><ele>1522.6</ele><time>2016-07-18T17:36:08Z</time></trkpt>
<trkpt lat="46.20208" lon="7.43594"><ele>1523.8</ele><time>2016-07-18T17:36:17Z</time></trkpt>
<trkpt lat="46.20209" lon="7.43596"><ele>1524</ele><time>2016-07-18T17:36:18Z</time></trkpt>
<trkpt lat="46.20215" lon="7.43621"><ele>1525.8</ele><time>2016-07-18T17:36:28Z</time></trkpt>
<trkpt lat="46.20219" lon="7.4363"><ele>1527</ele><time>2016-07-18T17:36:32Z</time></trkpt>
<trkpt lat="46.20223" lon="7.43639"><ele>1528</ele><time>2016-07-18T17:36:36Z</time></trkpt>
<trkpt lat="46.20236" lon="7.43658"><ele>1530.2</ele><time>2016-07-18T17:36:46Z</time></trkpt>
<trkpt lat="46.20247" lon="7.43681"><ele>1531.4</ele><time>2016-07-18T17:36:56Z</time></trkpt>
<trkpt lat="46.20261" lon="7.43697"><ele>1533.4</ele><time>2016-07-18T17:37:05Z</time></trkpt>
<trkpt lat="46.20274" lon="7.43716"><ele>1534.8</ele><time>2016-07-18T17:37:15Z</time></trkpt>
<trkpt lat="46.20279" lon="7.43719"><ele>1536.4</ele><time>2016-07-18T17:37:17Z</time></trkpt>
<trkpt lat="46.20288" lon="7.43728"><ele>1539.4</ele><time>2016-07-18T17:37:22Z</time></trkpt>
<trkpt lat="46.20291" lon="7.43733"><ele>1540.2</ele><time>2016-07-18T17:37:24Z</time></trkpt>
<trkpt lat="46.20301" lon="7.43757"><ele>1542.2</ele><time>2016-07-18T17:37:35Z</time></trkpt>
<trkpt lat="46.20304" lon="7.43765"><ele>1543</ele><time>2016-07-18T17:37:39Z</time></trkpt>
<trkpt lat="46.20316" lon="7.43788"><ele>1544.8</ele><time>2016-07-18T17:37:49Z</time></trkpt>
<trkpt lat="46.20332" lon="7.43802"><ele>1547.2</ele><time>2016-07-18T17:37:59Z</time></trkpt>
<trkpt lat="46.20347" lon="7.43818"><ele>1548.4</ele><time>2016-07-18T17:38:08Z</time></trkpt>
<trkpt lat="46.20359" lon="7.4384"><ele>1548.4</ele><time>2016-07-18T17:38:17Z</time></trkpt>
<trkpt lat="46.20363" lon="7.43847"><ele>1548.6</ele><time>2016-07-18T17:38:20Z</time></trkpt>
<trkpt lat="46.20379" lon="7.43873"><ele>1551.6</ele><time>2016-07-18T17:38:32Z</time></trkpt>
<trkpt lat="46.20383" lon="7.43881"><ele>1552</ele><time>2016-07-18T17:38:36Z</time></trkpt>
<trkpt lat="46.20398" lon="7.439"><ele>1555</ele><time>2016-07-18T17:38:46Z</time></trkpt>
<trkpt lat="46.20415" lon="7.43911"><ele>1560.6</ele><time>2016-07-18T17:38:55Z</time></trkpt>
<trkpt lat="46.20417" lon="7.43915"><ele>1561.2</ele><time>2016-07-18T17:38:57Z</time></trkpt>
<trkpt lat="46.20435" lon="7.43922"><ele>1564.6</ele><time>2016-07-18T17:39:04Z</time></trkpt>
<trkpt lat="46.20448" lon="7.43942"><ele>1566.6</ele><time>2016-07-18T17:39:14Z</time></trkpt>
<trkpt lat="46.20462" lon="7.43958"><ele>1567.4</ele><time>2016-07-18T17:39:23Z</time></trkpt>
<trkpt lat="46.20478" lon="7.43973"><ele>1567.8</ele><time>2016-07-18T17:39:28Z</time></trkpt>
<trkpt lat="46.20496" lon="7.43983"><ele>1566.6</ele><time>2016-07-18T17:39:33Z</time></trkpt>
<trkpt lat="46.205" lon="7.43985"><ele>1565.8</ele><time>2016-07-18T17:39:34Z</time></trkpt>
<trkpt lat="46.2052" lon="7.43995"><ele>1564.6</ele><time>2016-07-18T17:39:38Z</time></trkpt>
<trkpt lat="46.2053" lon="7.44003"><ele>1563.4</ele><time>2016-07-18T17:39:40Z</time></trkpt>
<trkpt lat="46.20544" lon="7.44015"><ele>1561.2</ele><time>2016-07-18T17:39:43Z</time></trkpt>
<trkpt lat="46.20562" lon="7.44025"><ele>1557.2</ele><time>2016-07-18T17:39:48Z</time></trkpt>
<trkpt lat="46.20565" lon="7.44027"><ele>1556.8</ele><time>2016-07-18T17:39:49Z</time></trkpt>
<trkpt lat="46.20568" lon="7.44029"><ele>1556.2</ele><time>2016-07-18T17:39:50Z</time></trkpt>
<trkpt lat="46.20574" lon="7.44035"><ele>1554</ele><time>2016-07-18T17:39:53Z</time></trkpt>
<trkpt lat="46.20576" lon="7.44034"><ele>1553.8</ele><time>2016-07-18T17:39:54Z</time></trkpt>
<trkpt lat="46.20577" lon="7.44028"><ele>1552.2</ele><time>2016-07-18T17:39:58Z</time></trkpt>
<trkpt lat="46.20574" lon="7.44019"><ele>1550.6</ele><time>2016-07-18T17:40:01Z</time></trkpt>
<trkpt lat="46.20569" lon="7.44002"><ele>1548.4</ele><time>2016-07-18T17:40:05Z</time></trkpt>
<trkpt lat="46.20562" lon="7.43985"><ele>1544</ele><time>2016-07-18T17:40:12Z</time></trkpt>
<trkpt lat="46.20562" lon="7.43979"><ele>1542.2</ele><time>2016-07-18T17:40:15Z</time></trkpt>
<trkpt lat="46.20575" lon="7.43968"><ele>1536.6</ele><time>2016-07-18T17:40:22Z</time></trkpt>
<trkpt lat="46.20585" lon="7.4396"><ele>1531.4</ele><time>2016-07-18T17:40:29Z</time></trkpt>
<trkpt lat="46.20603" lon="7.43955"><ele>1525</ele><time>2016-07-18T17:40:36Z</time></trkpt>
<trkpt lat="46.20612" lon="7.43953"><ele>1520.8</ele><time>2016-07-18T17:40:40Z</time></trkpt>
<trkpt lat="46.2063" lon="7.43953"><ele>1513.6</ele><time>2016-07-18T17:40:48Z</time></trkpt>
<trkpt lat="46.20654" lon="7.43964"><ele>1507.2</ele><time>2016-07-18T17:40:57Z</time></trkpt>
<trkpt lat="46.20668" lon="7.43971"><ele>1503</ele><time>2016-07-18T17:41:04Z</time></trkpt>
<trkpt lat="46.20669" lon="7.4396"><ele>1499.2</ele><time>2016-07-18T17:41:10Z</time></trkpt>
<trkpt lat="46.20669" lon="7.43959"><ele>1498.4</ele><time>2016-07-18T17:41:12Z</time></trkpt>
<trkpt lat="46.20668" lon="7.43957"><ele>1498</ele><time>2016-07-18T17:41:13Z</time></trkpt>
<trkpt lat="46.20666" lon="7.43957"><ele>1497</ele><time>2016-07-18T17:41:15Z</time></trkpt>
<trkpt lat="46.20666" lon="7.43956"><ele>1498.2</ele><time>2016-07-18T17:41:19Z</time></trkpt>
<trkpt lat="46.20665" lon="7.43956"><ele>1498.6</ele><time>2016-07-18T17:41:26Z</time></trkpt>
<trkpt lat="46.20665" lon="7.43956"><ele>1498.6</ele><time>2016-07-18T17:41:28Z</time></trkpt>
</trkseg></trk></gpx>